Terminal Aerodrome Forecast
Issued by NWS

Home | Current Version | Previous Version | Text Only | Print | Product List | Glossary On
Versions: 1 2 3 4 5 6 7 8 9 10 11 12 13 14 15 16 17 18 19 20 21 22 23 24 25 26 27 28 29 30 31 32 33
000
FTAK31 PAFA 032119 AAB
TAFATA
TAF AMD
PATA 032119Z 0321/0418 06007KT 1 1/2SM -SN BR OVC026
     FM040000 09008KT 3SM -SN BR BKN025 OVC050
     FM040300 09008KT 1SM -SN BR SCT015 OVC025
     FM041500 VRB04KT 3SM -SN BR FEW007 SCT012 OVC025=

USA.gov is the U.S. government's official web portal to all federal, state and local government web resources and services.